sensor_id;sensor_type;location;lat;lon;timestamp;temperature;humidity
34061;DHT22;20336;-33.424;-70.638;2023-02-15T00:01:57;28.20;63.00
34061;DHT22;20336;-33.424;-70.638;2023-02-15T00:04:25;28.00;63.40
34061;DHT22;20336;-33.424;-70.638;2023-02-15T00:07:13;27.90;63.60
34061;DHT22;20336;-33.424;-70.638;2023-02-15T00:09:40;27.80;63.90
34061;DHT22;20336;-33.424;-70.638;2023-02-15T00:12:08;27.80;64.50
34061;DHT22;20336;-33.424;-70.638;2023-02-15T00:14:35;27.70;65.40
34061;DHT22;20336;-33.424;-70.638;2023-02-15T00:17:02;27.70;65.00
34061;DHT22;20336;-33.424;-70.638;2023-02-15T00:19:29;27.40;65.40
34061;DHT22;20336;-33.424;-70.638;2023-02-15T00:21:56;27.40;65.80
34061;DHT22;20336;-33.424;-70.638;2023-02-15T00:24:23;27.30;65.80
34061;DHT22;20336;-33.424;-70.638;2023-02-15T00:26:50;27.20;66.20
34061;DHT22;20336;-33.424;-70.638;2023-02-15T00:29:18;27.10;66.90
34061;DHT22;20336;-33.424;-70.638;2023-02-15T00:31:46;27.00;67.60
34061;DHT22;20336;-33.424;-70.638;2023-02-15T00:34:19;27.00;67.20
34061;DHT22;20336;-33.424;-70.638;2023-02-15T00:36:46;27.00;67.90
34061;DHT22;20336;-33.424;-70.638;2023-02-15T00:39:14;26.90;68.30
34061;DHT22;20336;-33.424;-70.638;2023-02-15T00:41:41;26.80;68.80
34061;DHT22;20336;-33.424;-70.638;2023-02-15T00:44:09;26.70;68.60
34061;DHT22;20336;-33.424;-70.638;2023-02-15T00:46:36;26.50;69.00
34061;DHT22;20336;-33.424;-70.638;2023-02-15T00:49:03;26.40;70.40
34061;DHT22;20336;-33.424;-70.638;2023-02-15T00:51:31;26.30;70.40
34061;DHT22;20336;-33.424;-70.638;2023-02-15T00:54:01;26.10;70.80
34061;DHT22;20336;-33.424;-70.638;2023-02-15T00:56:28;26.10;71.20
34061;DHT22;20336;-33.424;-70.638;2023-02-15T00:58:55;26.00;71.30
34061;DHT22;20336;-33.424;-70.638;2023-02-15T01:01:22;25.90;71.60
34061;DHT22;20336;-33.424;-70.638;2023-02-15T01:03:49;25.70;71.90
34061;DHT22;20336;-33.424;-70.638;2023-02-15T01:06:17;25.60;72.30
34061;DHT22;20336;-33.424;-70.638;2023-02-15T01:08:45;25.80;73.20
34061;DHT22;20336;-33.424;-70.638;2023-02-15T01:11:15;25.70;73.40
34061;DHT22;20336;-33.424;-70.638;2023-02-15T01:13:49;25.50;74.10
34061;DHT22;20336;-33.424;-70.638;2023-02-15T01:16:17;25.40;74.00
34061;DHT22;20336;-33.424;-70.638;2023-02-15T01:18:44;25.30;74.50
34061;DHT22;20336;-33.424;-70.638;2023-02-15T01:21:16;25.30;74.90
34061;DHT22;20336;-33.424;-70.638;2023-02-15T01:23:44;25.40;75.00
34061;DHT22;20336;-33.424;-70.638;2023-02-15T01:26:11;25.20;74.60
34061;DHT22;20336;-33.424;-70.638;2023-02-15T01:28:38;25.10;75.50
34061;DHT22;20336;-33.424;-70.638;2023-02-15T01:31:08;25.10;76.80
34061;DHT22;20336;-33.424;-70.638;2023-02-15T01:33:36;25.00;77.10
34061;DHT22;20336;-33.424;-70.638;2023-02-15T01:36:04;25.00;77.20
34061;DHT22;20336;-33.424;-70.638;2023-02-15T01:38:31;24.90;77.20
34061;DHT22;20336;-33.424;-70.638;2023-02-15T01:40:58;24.80;77.50
34061;DHT22;20336;-33.424;-70.638;2023-02-15T01:43:45;24.60;78.10
34061;DHT22;20336;-33.424;-70.638;2023-02-15T01:46:13;24.50;78.40
34061;DHT22;20336;-33.424;-70.638;2023-02-15T01:48:47;24.60;79.10
34061;DHT22;20336;-33.424;-70.638;2023-02-15T01:51:17;24.50;79.20
34061;DHT22;20336;-33.424;-70.638;2023-02-15T01:54:12;24.50;80.40
34061;DHT22;20336;-33.424;-70.638;2023-02-15T01:56:42;24.50;79.10
34061;DHT22;20336;-33.424;-70.638;2023-02-15T01:59:13;24.50;79.50
34061;DHT22;20336;-33.424;-70.638;2023-02-15T02:01:41;24.40;79.70
34061;DHT22;20336;-33.424;-70.638;2023-02-15T02:04:25;24.40;79.90
34061;DHT22;20336;-33.424;-70.638;2023-02-15T02:06:57;24.30;79.80
34061;DHT22;20336;-33.424;-70.638;2023-02-15T02:09:25;24.30;79.40
34061;DHT22;20336;-33.424;-70.638;2023-02-15T02:11:52;24.20;79.20
34061;DHT22;20336;-33.424;-70.638;2023-02-15T02:14:20;24.40;79.90
34061;DHT22;20336;-33.424;-70.638;2023-02-15T02:19:52;24.20;79.40
34061;DHT22;20336;-33.424;-70.638;2023-02-15T02:25:33;24.20;79.80
34061;DHT22;20336;-33.424;-70.638;2023-02-15T02:37:09;24.20;79.40
34061;DHT22;20336;-33.424;-70.638;2023-02-15T02:44:43;23.90;79.60
34061;DHT22;20336;-33.424;-70.638;2023-02-15T02:48:07;24.00;79.50
34061;DHT22;20336;-33.424;-70.638;2023-02-15T02:50:17;23.70;79.40
34061;DHT22;20336;-33.424;-70.638;2023-02-15T02:52:46;23.70;79.20
34061;DHT22;20336;-33.424;-70.638;2023-02-15T02:55:37;23.70;77.90
34061;DHT22;20336;-33.424;-70.638;2023-02-15T02:58:13;23.60;77.80
34061;DHT22;20336;-33.424;-70.638;2023-02-15T03:03:18;23.40;79.00
34061;DHT22;20336;-33.424;-70.638;2023-02-15T03:05:50;23.40;79.00
34061;DHT22;20336;-33.424;-70.638;2023-02-15T03:08:20;23.40;79.60
34061;DHT22;20336;-33.424;-70.638;2023-02-15T03:10:52;23.30;80.40
34061;DHT22;20336;-33.424;-70.638;2023-02-15T03:13:20;23.20;79.70
34061;DHT22;20336;-33.424;-70.638;2023-02-15T03:15:49;23.10;80.00
34061;DHT22;20336;-33.424;-70.638;2023-02-15T03:18:38;23.00;80.40
34061;DHT22;20336;-33.424;-70.638;2023-02-15T03:21:07;22.90;81.00
34061;DHT22;20336;-33.424;-70.638;2023-02-15T03:23:35;22.80;81.80
34061;DHT22;20336;-33.424;-70.638;2023-02-15T03:26:05;22.90;84.10
34061;DHT22;20336;-33.424;-70.638;2023-02-15T03:28:41;22.80;83.50
34061;DHT22;20336;-33.424;-70.638;2023-02-15T03:31:10;22.80;84.10
34061;DHT22;20336;-33.424;-70.638;2023-02-15T03:33:47;22.80;84.40
34061;DHT22;20336;-33.424;-70.638;2023-02-15T03:36:39;22.60;85.10
34061;DHT22;20336;-33.424;-70.638;2023-02-15T03:39:38;22.50;85.70
34061;DHT22;20336;-33.424;-70.638;2023-02-15T03:42:26;22.50;84.50
34061;DHT22;20336;-33.424;-70.638;2023-02-15T03:45:05;22.60;84.40
34061;DHT22;20336;-33.424;-70.638;2023-02-15T03:47:44;22.40;85.20
34061;DHT22;20336;-33.424;-70.638;2023-02-15T03:50:17;22.30;85.20
34061;DHT22;20336;-33.424;-70.638;2023-02-15T03:53:05;22.20;84.50
34061;DHT22;20336;-33.424;-70.638;2023-02-15T03:55:34;22.10;83.60
34061;DHT22;20336;-33.424;-70.638;2023-02-15T03:58:02;22.10;83.10
34061;DHT22;20336;-33.424;-70.638;2023-02-15T04:00:59;22.10;83.10
34061;DHT22;20336;-33.424;-70.638;2023-02-15T04:04:01;22.00;82.40
34061;DHT22;20336;-33.424;-70.638;2023-02-15T04:06:30;21.90;82.20
34061;DHT22;20336;-33.424;-70.638;2023-02-15T04:08:56;21.80;82.40
34061;DHT22;20336;-33.424;-70.638;2023-02-15T04:11:41;21.80;83.30
34061;DHT22;20336;-33.424;-70.638;2023-02-15T04:14:08;21.70;82.40
34061;DHT22;20336;-33.424;-70.638;2023-02-15T04:16:53;21.70;82.40
34061;DHT22;20336;-33.424;-70.638;2023-02-15T04:19:20;21.60;82.90
34061;DHT22;20336;-33.424;-70.638;2023-02-15T04:22:05;21.50;83.20
34061;DHT22;20336;-33.424;-70.638;2023-02-15T04:24:49;21.50;84.10
34061;DHT22;20336;-33.424;-70.638;2023-02-15T04:27:34;21.50;84.60
34061;DHT22;20336;-33.424;-70.638;2023-02-15T04:30:02;21.50;84.40
34061;DHT22;20336;-33.424;-70.638;2023-02-15T04:32:29;21.40;85.50
34061;DHT22;20336;-33.424;-70.638;2023-02-15T04:34:56;21.40;85.00
34061;DHT22;20336;-33.424;-70.638;2023-02-15T04:37:22;21.30;84.80
34061;DHT22;20336;-33.424;-70.638;2023-02-15T04:39:49;21.20;85.80
34061;DHT22;20336;-33.424;-70.638;2023-02-15T04:42:16;21.20;85.70
34061;DHT22;20336;-33.424;-70.638;2023-02-15T04:44:43;21.20;86.30
34061;DHT22;20336;-33.424;-70.638;2023-02-15T04:47:10;21.10;85.90
34061;DHT22;20336;-33.424;-70.638;2023-02-15T04:49:37;21.00;86.00
34061;DHT22;20336;-33.424;-70.638;2023-02-15T04:52:04;21.00;86.60
34061;DHT22;20336;-33.424;-70.638;2023-02-15T04:54:31;20.90;86.80
34061;DHT22;20336;-33.424;-70.638;2023-02-15T04:56:57;20.80;87.20
34061;DHT22;20336;-33.424;-70.638;2023-02-15T04:59:24;20.90;87.60
34061;DHT22;20336;-33.424;-70.638;2023-02-15T05:01:51;20.80;87.80
34061;DHT22;20336;-33.424;-70.638;2023-02-15T05:04:18;20.70;88.00
34061;DHT22;20336;-33.424;-70.638;2023-02-15T05:06:45;20.70;88.60
34061;DHT22;20336;-33.424;-70.638;2023-02-15T05:09:13;20.60;88.60
34061;DHT22;20336;-33.424;-70.638;2023-02-15T05:11:39;20.50;88.80
34061;DHT22;20336;-33.424;-70.638;2023-02-15T05:14:06;20.50;89.10
34061;DHT22;20336;-33.424;-70.638;2023-02-15T05:16:34;20.40;89.30
34061;DHT22;20336;-33.424;-70.638;2023-02-15T05:19:01;20.30;89.90
34061;DHT22;20336;-33.424;-70.638;2023-02-15T05:21:28;20.30;90.10
34061;DHT22;20336;-33.424;-70.638;2023-02-15T05:23:57;20.20;90.10
34061;DHT22;20336;-33.424;-70.638;2023-02-15T05:26:24;20.20;90.40
34061;DHT22;20336;-33.424;-70.638;2023-02-15T05:29:10;20.10;90.60
34061;DHT22;20336;-33.424;-70.638;2023-02-15T05:31:37;20.10;90.80
34061;DHT22;20336;-33.424;-70.638;2023-02-15T05:34:04;20.00;90.80
34061;DHT22;20336;-33.424;-70.638;2023-02-15T05:36:31;20.00;91.00
34061;DHT22;20336;-33.424;-70.638;2023-02-15T05:38:58;20.00;91.10
34061;DHT22;20336;-33.424;-70.638;2023-02-15T05:41:25;20.00;91.30
34061;DHT22;20336;-33.424;-70.638;2023-02-15T05:43:54;20.00;91.40
34061;DHT22;20336;-33.424;-70.638;2023-02-15T05:46:21;20.00;91.60
34061;DHT22;20336;-33.424;-70.638;2023-02-15T05:48:48;19.90;91.70
34061;DHT22;20336;-33.424;-70.638;2023-02-15T05:51:14;19.90;91.80
34061;DHT22;20336;-33.424;-70.638;2023-02-15T05:53:43;19.90;91.90
34061;DHT22;20336;-33.424;-70.638;2023-02-15T05:56:11;19.70;91.70
34061;DHT22;20336;-33.424;-70.638;2023-02-15T05:58:40;19.70;92.00
34061;DHT22;20336;-33.424;-70.638;2023-02-15T06:01:11;19.60;93.00
34061;DHT22;20336;-33.424;-70.638;2023-02-15T06:03:39;19.50;92.40
34061;DHT22;20336;-33.424;-70.638;2023-02-15T14:47:15;29.50;80.30
34061;DHT22;20336;-33.424;-70.638;2023-02-15T14:49:44;29.70;81.50
34061;DHT22;20336;-33.424;-70.638;2023-02-15T14:52:12;29.80;79.70
34061;DHT22;20336;-33.424;-70.638;2023-02-15T15:07:54;30.80;76.60
34061;DHT22;20336;-33.424;-70.638;2023-02-15T15:12:54;30.20;76.90
34061;DHT22;20336;-33.424;-70.638;2023-02-15T15:18:10;31.00;75.60
34061;DHT22;20336;-33.424;-70.638;2023-02-15T15:20:46;31.60;75.10
34061;DHT22;20336;-33.424;-70.638;2023-02-15T15:25:50;31.60;74.20
34061;DHT22;20336;-33.424;-70.638;2023-02-15T15:34:19;32.10;72.10
34061;DHT22;20336;-33.424;-70.638;2023-02-15T15:42:50;32.30;70.90
34061;DHT22;20336;-33.424;-70.638;2023-02-15T15:45:49;32.60;72.00
34061;DHT22;20336;-33.424;-70.638;2023-02-15T15:48:32;32.80;70.80
34061;DHT22;20336;-33.424;-70.638;2023-02-15T15:53:47;33.00;69.50
34061;DHT22;20336;-33.424;-70.638;2023-02-15T15:56:26;33.00;69.50
34061;DHT22;20336;-33.424;-70.638;2023-02-15T15:59:11;33.10;69.40
34061;DHT22;20336;-33.424;-70.638;2023-02-15T16:01:43;33.10;68.00
34061;DHT22;20336;-33.424;-70.638;2023-02-15T16:04:26;34.00;68.90
34061;DHT22;20336;-33.424;-70.638;2023-02-15T16:06:53;34.30;67.90
34061;DHT22;20336;-33.424;-70.638;2023-02-15T16:09:23;34.10;66.90
34061;DHT22;20336;-33.424;-70.638;2023-02-15T16:11:58;33.90;67.10
34061;DHT22;20336;-33.424;-70.638;2023-02-15T16:14:36;34.10;66.50
34061;DHT22;20336;-33.424;-70.638;2023-02-15T16:17:08;34.20;66.90
34061;DHT22;20336;-33.424;-70.638;2023-02-15T16:19:41;34.20;65.50
34061;DHT22;20336;-33.424;-70.638;2023-02-15T16:22:23;34.80;65.10
34061;DHT22;20336;-33.424;-70.638;2023-02-15T16:27:50;34.90;65.00
34061;DHT22;20336;-33.424;-70.638;2023-02-15T16:32:46;35.60;62.40
34061;DHT22;20336;-33.424;-70.638;2023-02-15T16:35:16;36.10;63.30
34061;DHT22;20336;-33.424;-70.638;2023-02-15T16:37:43;36.30;62.90
34061;DHT22;20336;-33.424;-70.638;2023-02-15T22:55:55;31.00;69.10
34061;DHT22;20336;-33.424;-70.638;2023-02-15T22:58:26;30.80;70.50
34061;DHT22;20336;-33.424;-70.638;2023-02-15T23:00:53;29.80;71.80
34061;DHT22;20336;-33.424;-70.638;2023-02-15T23:03:25;29.40;72.90
34061;DHT22;20336;-33.424;-70.638;2023-02-15T23:05:53;29.20;73.90
34061;DHT22;20336;-33.424;-70.638;2023-02-15T23:08:20;29.10;73.90
34061;DHT22;20336;-33.424;-70.638;2023-02-15T23:10:52;28.50;74.50
34061;DHT22;20336;-33.424;-70.638;2023-02-15T23:13:26;28.30;75.60
34061;DHT22;20336;-33.424;-70.638;2023-02-15T23:16:06;28.20;76.40
34061;DHT22;20336;-33.424;-70.638;2023-02-15T23:18:35;27.90;77.20
34061;DHT22;20336;-33.424;-70.638;2023-02-15T23:21:13;27.60;78.10
34061;DHT22;20336;-33.424;-70.638;2023-02-15T23:23:47;27.40;78.40
34061;DHT22;20336;-33.424;-70.638;2023-02-15T23:28:46;27.00;79.90
34061;DHT22;20336;-33.424;-70.638;2023-02-15T23:31:17;26.80;81.30
34061;DHT22;20336;-33.424;-70.638;2023-02-15T23:33:45;26.40;82.00
34061;DHT22;20336;-33.424;-70.638;2023-02-15T23:36:28;26.20;83.20
34061;DHT22;20336;-33.424;-70.638;2023-02-15T23:38:57;25.90;84.40
34061;DHT22;20336;-33.424;-70.638;2023-02-15T23:41:27;25.90;85.20
34061;DHT22;20336;-33.424;-70.638;2023-02-15T23:44:01;25.80;85.90
34061;DHT22;20336;-33.424;-70.638;2023-02-15T23:46:39;25.70;86.90
34061;DHT22;20336;-33.424;-70.638;2023-02-15T23:49:11;25.60;87.60
34061;DHT22;20336;-33.424;-70.638;2023-02-15T23:51:52;25.50;88.50
34061;DHT22;20336;-33.424;-70.638;2023-02-15T23:54:22;25.30;89.20
34061;DHT22;20336;-33.424;-70.638;2023-02-15T23:56:52;25.30;90.00
34061;DHT22;20336;-33.424;-70.638;2023-02-15T23:59:28;25.40;90.20
